Time;durP1;ratioP1;P1;durP2;ratioP2;P2;SDS_P1;SDS_P2;PMS_P1;PMS_P2;Temp;Humidity;BMP_temperature;BMP_pressure;BME280_temperature;BME280_humidity;BME280_pressure;Samples;Min_cycle;Max_cycle;Signal;HPM_P1;HPM_P2
2021/12/06 00:00:15;;;;;;;0.52;0.32;;;17.70;65.50;;;;;;5042018;28;20022;-24
2021/12/06 00:02:40;;;;;;;1.00;0.47;;;17.70;65.30;;;;;;5038849;28;20113;-22
2021/12/06 00:05:06;;;;;;;1.15;0.70;;;17.80;65.30;;;;;;5024647;28;20057;-25
2021/12/06 00:07:32;;;;;;;1.23;0.30;;;17.70;65.30;;;;;;5042594;28;20049;-24
2021/12/06 00:09:58;;;;;;;1.85;0.43;;;17.70;65.20;;;;;;5042465;28;20021;-26
2021/12/06 00:12:23;;;;;;;1.45;0.40;;;17.70;65.30;;;;;;5042536;28;20044;-24
2021/12/06 00:14:49;;;;;;;2.13;0.30;;;17.70;65.20;;;;;;5039011;28;20386;-27
2021/12/06 00:17:16;;;;;;;0.35;0.30;;;17.70;65.00;;;;;;5021586;28;20087;-24
2021/12/06 00:19:42;;;;;;;0.52;0.40;;;17.70;65.00;;;;;;5039329;28;20057;-22
2021/12/06 00:22:13;;;;;;;0.55;0.20;;;17.70;65.20;;;;;;5039241;28;20459;-24
2021/12/06 00:24:38;;;;;;;0.73;0.32;;;17.60;65.00;;;;;;5038691;28;20028;-26
2021/12/06 00:27:04;;;;;;;0.73;0.35;;;17.60;65.00;;;;;;5032523;28;20018;-25
2021/12/06 00:29:30;;;;;;;0.90;0.30;;;17.60;65.00;;;;;;5019316;28;20025;-26
2021/12/06 00:31:55;;;;;;;0.90;0.20;;;17.60;65.00;;;;;;5034430;28;20080;-30
2021/12/06 00:34:22;;;;;;;0.25;0.25;;;17.60;65.00;;;;;;5019131;28;20026;-23
2021/12/06 00:36:55;;;;;;;1.55;0.35;;;17.60;65.00;;;;;;5019480;28;20038;-20
2021/12/06 00:39:21;;;;;;;0.30;0.20;;;17.60;64.90;;;;;;5018705;28;20030;-22
2021/12/06 00:41:47;;;;;;;0.43;0.20;;;17.70;65.00;;;;;;5019070;28;20089;-24
2021/12/06 00:44:12;;;;;;;0.47;0.20;;;17.60;65.70;;;;;;5018933;28;20052;-20
2021/12/06 00:46:38;;;;;;;1.08;0.47;;;17.60;64.90;;;;;;5019134;28;20569;-21
2021/12/06 00:49:10;;;;;;;0.32;0.22;;;17.60;64.80;;;;;;5035384;28;20132;-24
2021/12/06 00:51:36;;;;;;;0.55;0.55;;;17.60;64.80;;;;;;5038898;28;20056;-22
2021/12/06 00:54:02;;;;;;;0.15;0.15;;;17.60;64.80;;;;;;5026437;28;20486;-27
2021/12/06 00:56:27;;;;;;;0.38;0.20;;;17.60;64.80;;;;;;5031627;28;20030;-29
2021/12/06 00:58:53;;;;;;;0.40;0.30;;;17.60;64.70;;;;;;5022609;28;20107;-26
2021/12/06 01:01:19;;;;;;;0.65;0.30;;;17.60;64.70;;;;;;5045629;28;20227;-25
2021/12/06 01:03:44;;;;;;;0.55;0.40;;;17.60;64.70;;;;;;5058321;28;20028;-25
2021/12/06 01:06:10;;;;;;;0.40;0.20;;;17.60;64.80;;;;;;5058318;28;20080;-23
2021/12/06 01:08:36;;;;;;;0.40;0.40;;;17.60;64.80;;;;;;5058055;28;20095;-22
2021/12/06 01:11:02;;;;;;;0.50;0.28;;;17.60;64.80;;;;;;5057992;28;20055;-22
2021/12/06 01:13:27;;;;;;;0.50;0.32;;;17.60;64.80;;;;;;5058093;28;20024;-23
2021/12/06 01:15:54;;;;;;;0.32;0.28;;;17.50;64.70;;;;;;5058041;28;20078;-21
2021/12/06 01:18:20;;;;;;;0.20;0.20;;;17.60;64.80;;;;;;5058332;28;20079;-20
2021/12/06 01:20:58;;;;;;;0.28;0.17;;;17.60;64.60;;;;;;5057828;28;20049;-28
2021/12/06 01:23:28;;;;;;;0.50;0.20;;;17.60;64.60;;;;;;5057743;28;20032;-27
2021/12/06 01:41:34;;;;;;;0.22;0.22;;;17.50;64.50;;;;;;5037768;28;20033;-25
2021/12/06 01:44:06;;;;;;;0.47;0.30;;;17.50;64.50;;;;;;5037724;28;20049;-20
2021/12/06 01:46:32;;;;;;;0.45;0.25;;;17.50;64.50;;;;;;5037821;28;20108;-22
2021/12/06 01:48:57;;;;;;;0.30;0.20;;;17.50;64.50;;;;;;5037372;28;20081;-25
2021/12/06 01:51:23;;;;;;;0.20;0.20;;;17.50;64.50;;;;;;5037777;28;20067;-22
2021/12/06 01:53:49;;;;;;;0.25;0.10;;;17.50;64.40;;;;;;5037063;28;20491;-20
2021/12/06 01:56:14;;;;;;;0.40;0.20;;;17.50;64.50;;;;;;5037504;28;20068;-20
2021/12/06 01:58:42;;;;;;;0.30;0.25;;;17.50;64.50;;;;;;5037437;28;20036;-22
2021/12/06 02:01:07;;;;;;;1.60;0.28;;;17.50;64.50;;;;;;5025453;28;20021;-28
2021/12/06 02:03:33;;;;;;;0.65;0.30;;;17.50;64.40;;;;;;5057330;28;20021;-24
2021/12/06 02:05:59;;;;;;;0.30;0.30;;;17.50;64.40;;;;;;5057369;28;20028;-23
2021/12/06 02:08:24;;;;;;;0.30;0.25;;;17.50;64.40;;;;;;5057042;28;20025;-20
2021/12/06 02:10:53;;;;;;;0.20;0.20;;;17.50;64.30;;;;;;5056926;28;20029;-26
2021/12/06 02:13:18;;;;;;;0.30;0.20;;;17.50;64.40;;;;;;5057029;28;20394;-22
2021/12/06 02:15:53;;;;;;;0.20;0.17;;;17.50;64.40;;;;;;5057095;28;20033;-24
2021/12/06 02:18:41;;;;;;;0.50;0.30;;;17.50;64.30;;;;;;5056928;28;20025;-24
2021/12/06 02:21:26;;;;;;;0.20;0.20;;;17.50;64.40;;;;;;5042406;28;20100;-24
2021/12/06 02:23:52;;;;;;;0.30;0.22;;;17.40;64.40;;;;;;5056697;28;20025;-24
2021/12/06 02:26:18;;;;;;;0.82;0.20;;;17.50;64.40;;;;;;5056680;28;20032;-25
2021/12/06 02:28:44;;;;;;;0.40;0.20;;;17.50;64.40;;;;;;5056685;28;20024;-23
2021/12/06 02:31:10;;;;;;;0.32;0.30;;;17.50;64.40;;;;;;5056885;28;20025;-21
2021/12/06 02:33:35;;;;;;;0.35;0.30;;;17.50;64.40;;;;;;5056633;28;20037;-21
2021/12/06 02:36:01;;;;;;;0.20;0.20;;;17.50;64.30;;;;;;5056592;28;20037;-24
2021/12/06 02:38:26;;;;;;;0.40;0.25;;;17.50;64.10;;;;;;5056143;28;20494;-22
2021/12/06 02:40:52;;;;;;;0.65;0.40;;;17.50;64.30;;;;;;5056237;28;20051;-28
2021/12/06 02:43:18;;;;;;;0.30;0.20;;;17.40;64.20;;;;;;5056192;28;20047;-25
2021/12/06 02:45:44;;;;;;;0.45;0.25;;;17.50;64.20;;;;;;5056550;28;20021;-25
2021/12/06 02:48:10;;;;;;;0.35;0.35;;;17.50;64.10;;;;;;5046680;28;20132;-23
2021/12/06 02:50:51;;;;;;;0.40;0.20;;;17.40;64.10;;;;;;5036251;28;20109;-24
2021/12/06 02:53:18;;;;;;;0.30;0.30;;;17.40;64.10;;;;;;5035976;28;20025;-24
2021/12/06 02:55:51;;;;;;;0.25;0.10;;;17.40;64.20;;;;;;5036336;28;20026;-23
2021/12/06 03:01:18;;;;;;;0.30;0.20;;;17.40;64.20;;;;;;5041539;28;20120;-24
2021/12/06 03:03:44;;;;;;;0.20;0.17;;;17.40;64.20;;;;;;5056286;28;20072;-24
2021/12/06 03:06:11;;;;;;;0.20;0.20;;;17.40;64.10;;;;;;5038379;28;20024;-25
2021/12/06 03:08:48;;;;;;;0.30;0.20;;;17.40;64.20;;;;;;5056492;28;20029;-22
2021/12/06 03:11:22;;;;;;;0.20;0.20;;;17.40;64.20;;;;;;5056247;28;20388;-22
2021/12/06 03:13:47;;;;;;;0.40;0.15;;;17.40;64.20;;;;;;5056239;28;20116;-21
2021/12/06 03:16:13;;;;;;;0.10;0.10;;;17.40;64.10;;;;;;5056228;28;20065;-20
2021/12/06 03:18:42;;;;;;;0.20;0.13;;;17.40;64.10;;;;;;5056377;28;20112;-28
2021/12/06 03:21:07;;;;;;;0.40;0.20;;;17.40;64.00;;;;;;5056117;28;20022;-24
2021/12/06 03:23:33;;;;;;;0.25;0.20;;;17.40;64.00;;;;;;5056331;28;20100;-20
2021/12/06 03:25:59;;;;;;;0.47;0.15;;;17.40;64.10;;;;;;5056123;28;20029;-27
2021/12/06 03:28:24;;;;;;;0.30;0.25;;;17.40;64.00;;;;;;5056149;28;20524;-22
2021/12/06 03:30:50;;;;;;;0.30;0.22;;;17.40;64.10;;;;;;5056004;28;20025;-24
2021/12/06 03:33:15;;;;;;;0.17;0.15;;;17.40;64.00;;;;;;5056007;28;20029;-24
2021/12/06 03:35:41;;;;;;;0.30;0.10;;;17.40;64.00;;;;;;5056077;28;20061;-22
2021/12/06 03:38:07;;;;;;;0.20;0.20;;;17.40;64.10;;;;;;5055857;28;20032;-26
2021/12/06 03:40:32;;;;;;;0.30;0.20;;;17.30;64.00;;;;;;5055794;28;20079;-25
2021/12/06 03:42:58;;;;;;;0.43;0.20;;;17.40;64.00;;;;;;5056287;28;20454;-27
2021/12/06 03:45:24;;;;;;;0.40;0.30;;;17.30;64.00;;;;;;5056028;28;20033;-22
2021/12/06 03:47:49;;;;;;;0.30;0.20;;;17.40;64.10;;;;;;5040637;28;20068;-25
2021/12/06 03:50:15;;;;;;;0.10;0.10;;;17.30;64.00;;;;;;5018273;28;20030;-21
2021/12/06 03:52:40;;;;;;;0.10;0.10;;;17.30;64.00;;;;;;5036840;28;20025;-26
2021/12/06 03:55:07;;;;;;;0.50;0.20;;;17.30;63.90;;;;;;5039496;28;20036;-24
2021/12/06 03:57:32;;;;;;;0.22;0.20;;;17.30;63.90;;;;;;5039878;28;20470;-23
2021/12/06 03:59:58;;;;;;;0.15;0.13;;;17.40;63.90;;;;;;5039736;28;20017;-23
2021/12/06 04:02:26;;;;;;;0.30;0.30;;;17.40;63.80;;;;;;5055765;28;20021;-23
2021/12/06 04:04:51;;;;;;;0.15;0.15;;;17.40;63.90;;;;;;5059417;28;20032;-24
2021/12/06 04:07:17;;;;;;;0.30;0.10;;;17.30;63.90;;;;;;5059495;28;20017;-23
2021/12/06 04:09:43;;;;;;;0.40;0.30;;;17.30;63.90;;;;;;5059277;28;20494;-22
2021/12/06 04:12:08;;;;;;;0.20;0.20;;;17.30;63.90;;;;;;5059487;28;20025;-23
2021/12/06 04:14:35;;;;;;;0.20;0.10;;;17.30;63.80;;;;;;5059391;28;20370;-27
2021/12/06 04:17:00;;;;;;;0.10;0.10;;;17.30;63.80;;;;;;5059379;28;20056;-26
2021/12/06 04:19:26;;;;;;;0.10;0.10;;;17.30;63.80;;;;;;5058919;28;20029;-21
2021/12/06 04:21:51;;;;;;;0.32;0.32;;;17.30;63.80;;;;;;5059343;28;20393;-25
2021/12/06 04:24:17;;;;;;;0.13;0.10;;;17.30;63.70;;;;;;5059281;28;20100;-27
2021/12/06 04:26:43;;;;;;;0.22;0.20;;;17.30;63.80;;;;;;5059194;28;20063;-25
2021/12/06 04:29:09;;;;;;;0.30;0.10;;;17.30;63.90;;;;;;5059275;28;20032;-26
2021/12/06 04:31:40;;;;;;;0.20;0.10;;;17.30;63.90;;;;;;5059089;28;20163;-24
2021/12/06 04:34:05;;;;;;;0.30;0.20;;;17.30;63.80;;;;;;5058794;28;20122;-22
2021/12/06 04:36:31;;;;;;;0.20;0.20;;;17.30;63.80;;;;;;5058866;28;20029;-21
2021/12/06 04:38:57;;;;;;;0.10;0.10;;;17.30;63.70;;;;;;5058736;28;20029;-24
2021/12/06 04:41:22;;;;;;;0.30;0.20;;;17.30;63.60;;;;;;5059098;28;20027;-26
2021/12/06 04:43:48;;;;;;;0.35;0.10;;;17.30;63.80;;;;;;5058705;28;20104;-24
2021/12/06 04:46:14;;;;;;;0.22;0.20;;;17.30;63.80;;;;;;5058898;28;20047;-23
2021/12/06 04:48:39;;;;;;;0.20;0.15;;;17.30;63.90;;;;;;5044846;28;20514;-24
2021/12/06 04:51:06;;;;;;;0.13;0.13;;;17.30;63.70;;;;;;5038752;28;20049;-27
2021/12/06 04:53:36;;;;;;;0.28;0.10;;;17.30;63.60;;;;;;5038451;28;20099;-23
2021/12/06 04:56:10;;;;;;;0.20;0.10;;;17.30;63.60;;;;;;5038740;28;20060;-28
2021/12/06 04:58:47;;;;;;;0.38;0.10;;;17.30;63.70;;;;;;5038571;28;20030;-26
2021/12/06 05:01:18;;;;;;;0.35;0.22;;;17.30;63.60;;;;;;5044357;28;20017;-21
2021/12/06 05:03:44;;;;;;;0.30;0.20;;;17.30;63.60;;;;;;5058500;28;20067;-23
2021/12/06 05:06:12;;;;;;;0.20;0.20;;;17.30;63.60;;;;;;5058282;28;20021;-26
2021/12/06 05:08:41;;;;;;;0.55;0.20;;;17.30;63.60;;;;;;5058128;28;20025;-26
2021/12/06 05:11:07;;;;;;;0.10;0.10;;;17.20;64.40;;;;;;5058450;28;20029;-21
2021/12/06 05:13:33;;;;;;;0.75;0.40;;;17.20;63.60;;;;;;5058194;28;20577;-24
2021/12/06 05:15:59;;;;;;;0.00;0.00;;;17.20;63.50;;;;;;5058496;28;20094;-29
2021/12/06 05:18:24;;;;;;;0.30;0.30;;;17.20;63.60;;;;;;5058213;28;20029;-21
2021/12/06 05:20:51;;;;;;;0.10;0.10;;;17.20;63.70;;;;;;5058090;28;20021;-26
2021/12/06 05:23:16;;;;;;;0.20;0.20;;;17.20;63.50;;;;;;5058114;28;20488;-25
2021/12/06 05:25:42;;;;;;;0.17;0.17;;;17.20;63.40;;;;;;5057939;28;20025;-27
2021/12/06 05:28:08;;;;;;;0.10;0.10;;;17.20;63.40;;;;;;5057973;28;20396;-20
2021/12/06 05:30:35;;;;;;;0.28;0.10;;;17.20;63.50;;;;;;5040075;28;20024;-19
2021/12/06 05:33:02;;;;;;;0.28;0.20;;;17.20;63.40;;;;;;5057944;28;20087;-20
2021/12/06 05:35:28;;;;;;;0.25;0.25;;;17.20;63.60;;;;;;5057836;28;20025;-23
2021/12/06 05:37:54;;;;;;;0.38;0.20;;;17.20;63.50;;;;;;5040741;28;20029;-25
2021/12/06 05:40:25;;;;;;;0.43;0.10;;;17.20;63.60;;;;;;5034240;28;20017;-26
2021/12/06 05:42:51;;;;;;;0.73;0.30;;;17.20;64.50;;;;;;5043054;28;20069;-20
2021/12/06 05:45:17;;;;;;;0.13;0.13;;;17.20;63.50;;;;;;5044018;28;20060;-23
2021/12/06 05:47:43;;;;;;;2.53;0.20;;;17.20;63.60;;;;;;5049070;28;20060;-24
2021/12/06 05:50:09;;;;;;;0.40;0.13;;;17.20;63.60;;;;;;5039169;28;20049;-22
2021/12/06 05:52:35;;;;;;;0.22;0.15;;;17.20;63.60;;;;;;5036393;28;20205;-23
2021/12/06 05:55:01;;;;;;;0.25;0.20;;;17.20;63.40;;;;;;5036136;28;20525;-28
2021/12/06 05:57:27;;;;;;;1.55;0.17;;;17.20;63.50;;;;;;5035651;28;20502;-23
2021/12/06 05:59:52;;;;;;;0.13;0.10;;;17.20;63.90;;;;;;5036102;28;20049;-25
2021/12/06 06:02:18;;;;;;;0.22;0.20;;;17.10;64.20;;;;;;5050627;28;20398;-23
2021/12/06 06:04:44;;;;;;;0.10;0.10;;;17.10;64.80;;;;;;5055733;28;20106;-22
2021/12/06 06:07:09;;;;;;;1.55;0.10;;;17.10;65.20;;;;;;5056052;28;20041;-25
2021/12/06 06:09:35;;;;;;;1.20;0.20;;;17.10;65.30;;;;;;5055116;28;20048;-24
2021/12/06 06:12:03;;;;;;;0.20;0.20;;;17.10;65.00;;;;;;5055141;28;20064;-21
2021/12/06 06:14:29;;;;;;;0.20;0.10;;;17.10;65.10;;;;;;5055187;28;20413;-20
2021/12/06 06:16:56;;;;;;;1.27;0.40;;;17.10;65.00;;;;;;5055894;28;20052;-26
2021/12/06 06:19:24;;;;;;;0.20;0.10;;;17.00;65.10;;;;;;5054778;28;20044;-23
2021/12/06 06:21:50;;;;;;;0.22;0.20;;;17.10;65.30;;;;;;5055743;28;20118;-21
2021/12/06 06:24:15;;;;;;;0.22;0.20;;;17.10;64.90;;;;;;5054529;28;20049;-24
2021/12/06 06:26:41;;;;;;;0.28;0.20;;;17.10;65.00;;;;;;5055598;28;20047;-24
2021/12/06 06:29:07;;;;;;;0.95;0.20;;;17.10;64.80;;;;;;5055605;28;20052;-25
2021/12/06 06:31:32;;;;;;;1.55;0.28;;;17.10;65.20;;;;;;5054799;28;20052;-25
2021/12/06 06:33:58;;;;;;;0.10;0.10;;;17.10;64.90;;;;;;5055499;28;20056;-26
2021/12/06 06:36:24;;;;;;;0.15;0.10;;;17.10;65.20;;;;;;5053432;28;20041;-22
2021/12/06 06:38:49;;;;;;;1.52;0.10;;;17.10;64.80;;;;;;5055147;28;20132;-20
2021/12/06 06:41:15;;;;;;;1.05;0.52;;;17.00;64.90;;;;;;5054826;28;20048;-23
2021/12/06 06:43:41;;;;;;;0.40;0.17;;;17.10;64.90;;;;;;5055409;28;20049;-22
2021/12/06 06:46:06;;;;;;;0.22;0.20;;;17.10;65.00;;;;;;5051988;28;20167;-22
2021/12/06 06:48:32;;;;;;;0.28;0.20;;;17.00;65.00;;;;;;5030352;28;20061;-29
2021/12/06 06:50:57;;;;;;;0.60;0.50;;;17.00;65.00;;;;;;5033803;28;20495;-23
2021/12/06 06:53:23;;;;;;;0.50;0.28;;;17.00;64.90;;;;;;5027015;28;20128;-23
2021/12/06 06:55:49;;;;;;;0.32;0.28;;;17.00;65.00;;;;;;5024877;28;20087;-23
2021/12/06 06:58:14;;;;;;;0.32;0.32;;;17.00;65.00;;;;;;5030278;28;20532;-21
2021/12/06 07:00:40;;;;;;;0.65;0.25;;;17.00;65.00;;;;;;5027025;28;20460;-24
2021/12/06 07:03:07;;;;;;;0.30;0.30;;;17.00;64.90;;;;;;5027596;28;20479;-27
2021/12/06 07:05:33;;;;;;;0.22;0.20;;;17.00;64.80;;;;;;5034442;28;20072;-30
2021/12/06 07:07:58;;;;;;;0.40;0.20;;;17.00;64.80;;;;;;5036387;28;20073;-25
2021/12/06 07:10:24;;;;;;;0.60;0.20;;;17.00;64.90;;;;;;5030037;28;20080;-24
2021/12/06 07:12:51;;;;;;;0.77;0.30;;;17.00;64.80;;;;;;5033397;28;20099;-26
2021/12/06 07:15:22;;;;;;;1.40;0.25;;;17.00;64.80;;;;;;5030790;28;20045;-24
2021/12/06 07:17:48;;;;;;;0.25;0.25;;;17.00;64.80;;;;;;5026854;28;20059;-22
2021/12/06 07:20:14;;;;;;;0.10;0.10;;;16.90;64.90;;;;;;5033483;28;20038;-26
2021/12/06 07:22:40;;;;;;;0.32;0.10;;;17.00;64.90;;;;;;5027181;28;20045;-25
2021/12/06 07:25:07;;;;;;;0.52;0.30;;;17.00;64.90;;;;;;5032956;28;20101;-23
2021/12/06 07:27:32;;;;;;;0.20;0.20;;;16.90;64.90;;;;;;5035044;28;20151;-28
2021/12/06 07:29:58;;;;;;;0.52;0.15;;;16.90;64.90;;;;;;5037699;28;20061;-25
2021/12/06 07:32:24;;;;;;;0.82;0.20;;;16.90;64.80;;;;;;5031228;28;20064;-22
2021/12/06 07:34:51;;;;;;;0.38;0.20;;;16.90;64.90;;;;;;5045493;28;20036;-22
2021/12/06 07:37:16;;;;;;;0.22;0.20;;;16.90;64.80;;;;;;5038078;28;20509;-29
2021/12/06 07:39:42;;;;;;;0.55;0.30;;;16.90;64.80;;;;;;5038288;28;20041;-24
2021/12/06 07:42:11;;;;;;;0.20;0.10;;;16.90;64.80;;;;;;5038665;28;20144;-23
2021/12/06 07:44:37;;;;;;;0.25;0.20;;;16.90;64.70;;;;;;5037833;28;20402;-27
2021/12/06 07:47:03;;;;;;;0.82;0.30;;;16.90;64.80;;;;;;5038598;28;20509;-28
2021/12/06 07:49:29;;;;;;;0.25;0.20;;;16.90;64.80;;;;;;5045737;28;20057;-23
2021/12/06 07:51:54;;;;;;;0.28;0.20;;;16.90;64.90;;;;;;5038648;28;20069;-20
2021/12/06 07:54:20;;;;;;;0.25;0.20;;;16.90;64.80;;;;;;5037548;28;20041;-24
2021/12/06 07:56:45;;;;;;;0.30;0.17;;;16.90;64.80;;;;;;5038529;28;20049;-27
2021/12/06 07:59:11;;;;;;;1.98;0.28;;;16.90;64.70;;;;;;5038150;28;20065;-23
2021/12/06 08:01:37;;;;;;;0.50;0.17;;;16.90;64.60;;;;;;5047225;28;20048;-22
2021/12/06 08:04:03;;;;;;;0.47;0.22;;;16.90;64.70;;;;;;5057960;28;20510;-27
2021/12/06 08:06:29;;;;;;;0.20;0.20;;;16.90;64.70;;;;;;5057650;28;20083;-25
2021/12/06 08:08:54;;;;;;;0.25;0.20;;;16.90;64.60;;;;;;5058057;28;20051;-25
2021/12/06 08:11:21;;;;;;;0.95;0.30;;;16.90;64.60;;;;;;5043580;28;20038;-21
2021/12/06 08:13:50;;;;;;;2.50;0.20;;;16.90;64.60;;;;;;5032863;28;20037;-22
2021/12/06 08:16:18;;;;;;;0.57;0.20;;;16.90;64.60;;;;;;5028026;28;20406;-25
2021/12/06 08:18:47;;;;;;;0.25;0.20;;;16.90;64.60;;;;;;5037326;28;20494;-23
2021/12/06 08:21:13;;;;;;;0.52;0.45;;;16.90;64.60;;;;;;5037937;28;20041;-27
2021/12/06 08:23:39;;;;;;;0.88;0.30;;;16.90;64.60;;;;;;5037430;28;20593;-22
2021/12/06 08:26:06;;;;;;;0.20;0.20;;;16.90;64.60;;;;;;5037959;28;20056;-25
2021/12/06 08:28:33;;;;;;;0.32;0.25;;;16.90;64.50;;;;;;5037124;28;20100;-23
2021/12/06 08:30:59;;;;;;;0.43;0.20;;;16.80;64.60;;;;;;5037822;28;20521;-24
2021/12/06 08:33:26;;;;;;;0.25;0.25;;;16.90;64.60;;;;;;5045135;28;20041;-24
2021/12/06 08:35:52;;;;;;;0.30;0.22;;;16.90;64.60;;;;;;5044614;28;20049;-23
2021/12/06 08:38:19;;;;;;;0.20;0.20;;;16.90;64.50;;;;;;5037681;28;20482;-24
2021/12/06 08:40:45;;;;;;;0.13;0.13;;;16.90;64.50;;;;;;5045031;28;20398;-20
2021/12/06 08:43:16;;;;;;;0.40;0.30;;;16.90;64.60;;;;;;5037537;28;20040;-22
2021/12/06 08:45:47;;;;;;;0.20;0.20;;;16.90;64.50;;;;;;5036834;28;20045;-25
2021/12/06 08:48:13;;;;;;;0.30;0.20;;;16.90;64.40;;;;;;5037253;28;20060;-21
2021/12/06 08:50:38;;;;;;;0.90;0.15;;;16.90;64.50;;;;;;5034313;28;20121;-31
2021/12/06 08:53:04;;;;;;;0.17;0.15;;;16.80;64.40;;;;;;5020524;28;20045;-22
2021/12/06 08:55:29;;;;;;;0.50;0.30;;;16.80;64.40;;;;;;5034986;28;20044;-22
2021/12/06 08:57:55;;;;;;;0.30;0.20;;;16.90;64.40;;;;;;5018735;28;20046;-24
2021/12/06 09:00:25;;;;;;;0.15;0.15;;;16.80;64.40;;;;;;5037237;28;20066;-24
2021/12/06 09:02:51;;;;;;;0.40;0.20;;;16.90;64.40;;;;;;5036691;28;20033;-26
2021/12/06 09:05:17;;;;;;;0.40;0.28;;;16.90;64.30;;;;;;5037061;28;20072;-30
2021/12/06 09:07:43;;;;;;;0.22;0.20;;;16.90;64.40;;;;;;5031794;28;20042;-25
2021/12/06 09:10:10;;;;;;;0.50;0.20;;;16.80;64.40;;;;;;5027737;28;20053;-28
2021/12/06 09:12:36;;;;;;;0.20;0.20;;;16.80;64.40;;;;;;5036451;28;20038;-21
2021/12/06 09:15:05;;;;;;;0.20;0.20;;;16.80;64.40;;;;;;5037133;28;20510;-28
2021/12/06 09:17:30;;;;;;;0.40;0.30;;;16.90;64.40;;;;;;5035824;28;20137;-25
2021/12/06 09:19:56;;;;;;;0.20;0.20;;;16.90;64.30;;;;;;5035702;28;20545;-25
2021/12/06 09:22:21;;;;;;;0.20;0.20;;;16.90;64.20;;;;;;5036864;28;20041;-25
2021/12/06 09:24:49;;;;;;;0.57;0.30;;;16.90;64.30;;;;;;5039064;28;20056;-23
2021/12/06 09:27:14;;;;;;;0.40;0.20;;;16.80;64.20;;;;;;5041278;28;20042;-30
2021/12/06 09:29:40;;;;;;;0.30;0.20;;;16.90;64.30;;;;;;5047096;28;20037;-22
2021/12/06 09:32:07;;;;;;;0.28;0.17;;;16.80;64.20;;;;;;5042407;28;20580;-28
2021/12/06 09:34:33;;;;;;;0.63;0.40;;;16.90;64.20;;;;;;5045867;28;20045;-23
2021/12/06 09:36:59;;;;;;;0.40;0.40;;;16.90;64.20;;;;;;5048442;28;20088;-25
2021/12/06 09:39:25;;;;;;;0.20;0.20;;;16.90;64.20;;;;;;5046351;28;20055;-25
2021/12/06 09:41:51;;;;;;;0.20;0.20;;;16.90;64.20;;;;;;5028616;28;20694;-21
2021/12/06 09:44:18;;;;;;;0.22;0.20;;;16.80;64.00;;;;;;5030301;28;20051;-28
2021/12/06 09:46:43;;;;;;;0.10;0.10;;;16.80;64.10;;;;;;5048857;28;20080;-24
2021/12/06 09:49:18;;;;;;;0.17;0.13;;;16.90;64.20;;;;;;5029251;28;20049;-24
2021/12/06 09:51:50;;;;;;;0.40;0.25;;;16.80;64.10;;;;;;5034153;28;20057;-25
2021/12/06 09:54:27;;;;;;;0.52;0.30;;;16.90;64.20;;;;;;5032579;28;20124;-26
2021/12/06 09:56:53;;;;;;;0.25;0.20;;;16.90;64.20;;;;;;5025932;28;20034;-29
2021/12/06 09:59:21;;;;;;;0.20;0.20;;;16.90;64.10;;;;;;5036007;28;20052;-24
2021/12/06 10:01:50;;;;;;;0.10;0.10;;;16.90;64.10;;;;;;5049444;28;20040;-25
2021/12/06 10:04:19;;;;;;;0.47;0.30;;;16.90;64.00;;;;;;5075669;28;20052;-27
2021/12/06 10:06:45;;;;;;;0.63;0.30;;;16.90;64.00;;;;;;5075084;28;20544;-26
2021/12/06 10:09:11;;;;;;;0.10;0.10;;;16.90;64.00;;;;;;5067536;28;20053;-23
2021/12/06 10:11:37;;;;;;;0.20;0.20;;;16.80;64.00;;;;;;5035465;28;20414;-27
2021/12/06 10:14:02;;;;;;;0.30;0.22;;;16.80;64.00;;;;;;5031756;28;20049;-30
2021/12/06 10:16:28;;;;;;;0.20;0.20;;;16.90;64.00;;;;;;5042952;28;20052;-29
2021/12/06 10:18:54;;;;;;;0.20;0.20;;;16.90;64.00;;;;;;5043360;28;20045;-25
2021/12/06 10:21:20;;;;;;;0.40;0.30;;;16.90;64.00;;;;;;5043503;28;20758;-24
2021/12/06 10:23:46;;;;;;;0.30;0.20;;;16.90;64.60;;;;;;5042932;28;20478;-26
2021/12/06 10:26:14;;;;;;;0.30;0.30;;;16.90;63.90;;;;;;5052811;28;20044;-23
2021/12/06 10:28:42;;;;;;;0.30;0.30;;;16.90;64.60;;;;;;5056142;28;20064;-21
2021/12/06 10:31:08;;;;;;;0.10;0.10;;;16.90;63.80;;;;;;5055385;28;20037;-27
2021/12/06 10:33:36;;;;;;;0.28;0.20;;;16.90;63.80;;;;;;5054371;28;20048;-29
2021/12/06 10:36:04;;;;;;;0.22;0.20;;;16.80;63.90;;;;;;5055166;28;20044;-25
2021/12/06 10:38:33;;;;;;;0.30;0.30;;;16.90;64.70;;;;;;5053379;28;20401;-27
2021/12/06 10:41:07;;;;;;;0.20;0.20;;;16.80;63.80;;;;;;5055182;28;20490;-26
2021/12/06 10:43:34;;;;;;;0.30;0.30;;;16.80;63.90;;;;;;5039634;28;20088;-22
2021/12/06 10:46:00;;;;;;;0.30;0.30;;;16.80;63.80;;;;;;5031923;28;20056;-23
2021/12/06 10:48:30;;;;;;;0.28;0.28;;;16.80;63.80;;;;;;5034056;28;20057;-23
2021/12/06 10:51:01;;;;;;;0.57;0.57;;;16.90;63.90;;;;;;5034530;28;20091;-21
2021/12/06 10:53:44;;;;;;;0.50;0.30;;;16.80;63.80;;;;;;5029034;28;20085;-25
2021/12/06 10:56:17;;;;;;;0.20;0.20;;;16.80;63.90;;;;;;5035047;28;20072;-22
2021/12/06 10:58:43;;;;;;;0.23;0.10;;;16.80;63.80;;;;;;5034108;28;20465;-23
2021/12/06 11:01:13;;;;;;;0.47;0.30;;;16.90;63.60;;;;;;5034929;28;20042;-26
2021/12/06 11:03:47;;;;;;;0.65;0.30;;;16.90;63.70;;;;;;5026372;28;20037;-26
2021/12/06 11:06:27;;;;;;;0.40;0.30;;;16.80;63.70;;;;;;5028679;28;20455;-26
2021/12/06 11:08:55;;;;;;;0.55;0.30;;;17.00;63.40;;;;;;5035958;28;20041;-22
2021/12/06 11:11:30;;;;;;;0.40;0.30;;;17.00;63.20;;;;;;5054904;28;20488;-23
2021/12/06 11:14:05;;;;;;;0.10;0.10;;;17.00;63.20;;;;;;5054080;28;20037;-25
2021/12/06 11:16:32;;;;;;;0.60;0.40;;;17.00;63.20;;;;;;5052152;28;20064;-29
2021/12/06 11:18:59;;;;;;;2.92;0.30;;;16.90;63.40;;;;;;5039683;28;20053;-22
2021/12/06 11:21:42;;;;;;;0.63;0.30;;;17.00;63.20;;;;;;5035068;28;20563;-25
2021/12/06 11:24:20;;;;;;;0.30;0.30;;;17.00;63.20;;;;;;5040155;28;20045;-22
2021/12/06 11:26:50;;;;;;;0.68;0.30;;;16.90;63.40;;;;;;5042091;28;20413;-26
2021/12/06 11:29:23;;;;;;;0.60;0.30;;;16.90;63.60;;;;;;5034910;28;20086;-25
2021/12/06 11:31:51;;;;;;;0.30;0.30;;;16.90;63.70;;;;;;5034184;28;20057;-26
2021/12/06 11:34:17;;;;;;;0.20;0.20;;;16.90;63.70;;;;;;5034602;28;20138;-25
2021/12/06 11:36:43;;;;;;;0.28;0.28;;;16.90;63.80;;;;;;5033074;28;20077;-26
2021/12/06 11:39:17;;;;;;;1.13;0.40;;;16.80;63.70;;;;;;5045564;28;20045;-20
2021/12/06 11:41:45;;;;;;;0.40;0.20;;;16.80;63.70;;;;;;5030603;28;20098;-31
2021/12/06 11:44:34;;;;;;;1.70;0.30;;;16.80;63.70;;;;;;5020964;28;20037;-22
2021/12/06 11:47:04;;;;;;;0.77;0.28;;;16.80;63.70;;;;;;5034329;28;20462;-23
2021/12/06 11:49:40;;;;;;;0.77;0.20;;;16.80;63.60;;;;;;5030158;28;20049;-23
2021/12/06 11:52:08;;;;;;;1.20;0.30;;;16.80;63.60;;;;;;5032382;28;20393;-25
2021/12/06 11:54:36;;;;;;;0.57;0.57;;;16.80;63.70;;;;;;5042238;28;20531;-25
2021/12/06 11:57:28;;;;;;;0.20;0.20;;;16.80;63.70;;;;;;5043452;28;20048;-26
2021/12/06 11:59:59;;;;;;;0.30;0.28;;;16.90;63.60;;;;;;5044182;28;20505;-27
2021/12/06 12:02:52;;;;;;;2.05;0.30;;;16.80;63.60;;;;;;5047731;28;20041;-23
2021/12/06 12:05:19;;;;;;;1.42;0.30;;;16.80;63.60;;;;;;5043662;28;20041;-26
2021/12/06 12:07:55;;;;;;;0.55;0.40;;;16.80;63.70;;;;;;5036228;28;20074;-29
2021/12/06 12:10:37;;;;;;;0.45;0.30;;;16.80;63.60;;;;;;5042007;28;20099;-26
2021/12/06 12:13:03;;;;;;;0.45;0.20;;;16.80;63.60;;;;;;5040585;28;20046;-21
2021/12/06 12:15:29;;;;;;;0.43;0.28;;;16.80;63.70;;;;;;5038611;28;20044;-28
2021/12/06 12:17:54;;;;;;;0.40;0.25;;;16.80;63.60;;;;;;5032975;28;20058;-24
2021/12/06 12:20:24;;;;;;;1.23;0.30;;;16.80;63.60;;;;;;5033306;28;20030;-25
2021/12/06 12:22:55;;;;;;;1.08;0.30;;;16.80;63.60;;;;;;5034248;28;20046;-24
2021/12/06 12:25:30;;;;;;;0.43;0.35;;;16.80;63.60;;;;;;5030120;28;20034;-21
2021/12/06 12:28:19;;;;;;;0.50;0.38;;;16.80;63.50;;;;;;5043434;28;20068;-26
2021/12/06 12:30:47;;;;;;;0.30;0.30;;;16.80;63.60;;;;;;5037818;28;20605;-25
2021/12/06 12:33:13;;;;;;;0.25;0.22;;;16.80;63.50;;;;;;5037082;28;20126;-22
2021/12/06 12:35:41;;;;;;;0.43;0.30;;;16.80;63.50;;;;;;5034234;28;20120;-24
2021/12/06 12:38:07;;;;;;;0.60;0.40;;;16.80;63.50;;;;;;5034018;28;20486;-29
2021/12/06 12:40:40;;;;;;;0.30;0.22;;;16.80;63.60;;;;;;5020721;28;20446;-21
2021/12/06 12:43:08;;;;;;;0.47;0.30;;;16.80;63.50;;;;;;5048247;28;20037;-24
2021/12/06 12:45:38;;;;;;;0.95;0.30;;;16.80;63.50;;;;;;5049741;28;20562;-30
2021/12/06 12:48:04;;;;;;;0.20;0.20;;;16.80;63.50;;;;;;5052835;28;20053;-26
2021/12/06 12:50:30;;;;;;;0.60;0.30;;;16.80;63.50;;;;;;5046838;28;20039;-21
2021/12/06 12:52:59;;;;;;;1.38;0.20;;;16.80;63.40;;;;;;5031343;28;20072;-25
2021/12/06 12:55:24;;;;;;;0.68;0.40;;;16.80;63.50;;;;;;5039400;28;20036;-26
2021/12/06 12:57:52;;;;;;;0.73;0.20;;;16.80;63.50;;;;;;5030407;28;20034;-26
2021/12/06 13:00:19;;;;;;;0.20;0.17;;;16.80;63.50;;;;;;5027360;28;20041;-24
2021/12/06 13:02:46;;;;;;;0.40;0.30;;;16.80;63.40;;;;;;5054709;28;20087;-23
2021/12/06 13:05:20;;;;;;;1.27;0.20;;;16.80;63.30;;;;;;5047687;28;20033;-23
2021/12/06 13:07:49;;;;;;;0.30;0.10;;;16.80;63.50;;;;;;5055991;28;20037;-24